Search for airport 
image banner adimage banner adimage banner ad
image banner ad

0O2 - Baker

Located in Baker, United States

ICAO - 0O2, IATA -

Data provided by Airmate  

General information

Coordinates: N35°17'11" W116°4'53"
Elevation is 922 feet MSL.
Magnetic variation is 14° East
View others Airports in California

Operational data

Special qualification required
Current time UTC:
Current local time:
Weather at : KBYS - Bicycle Lake Aaf ( 50 km )
METAR: KBYS 212158Z AUTO 10003KT 10SM CLR 32/M09 A3017 RMK AO2 SLP193 T03241090 $
View NOTAMs / SUP AIP / TFR affecting this airport [VIEW]
Communications frequencies: [VIEW]

Runways:

RWY identifierQFULength (ft)Width (ft)SurfaceLDA (ft)
15166°315750ASPH
33346°315750ASPH

Airport contact information

Address: Baker United States

Satellite view of 0O2